Metar Aeropuerto Ibiza
Muy nuboso
Muy nuboso
STATION : LEIB
METAR : 2018/05/26 19:30 LEIB 261930Z 05006KT 9999 FEW010 BKN020 20/17 Q1012 NOSIG
WINDMPH : NE at 7 mph
WIND : NE at 7 mph (11 km/h)
VISIBILITY : 6 miles (10 km)
CONDITIONS :
CLOUDS : Mostly Cloudy
CLOUD-DETAILS : Few Clouds 1000 ft Mostly Cloudy 2000 ft
TEMP : 68°F (20°C)
DEWPT : 63°F (17°C)
HUMIDITY : 83%
BAROMETER : 29.88 inHg (1012 hPa)
RAW-METAR : 2018/05/26 19:30 LEIB 261930Z 05006KT 9999 FEW010 BKN020 20/17 Q1012 NOSIG
 Publicidad